createdAt,value
2019-04-26T00:01:31.548Z,12.08
2019-04-26T00:04:02.211Z,12.10
2019-04-26T00:06:32.748Z,12.14
2019-04-26T00:09:22.181Z,12.32
2019-04-26T00:12:00.404Z,11.76
2019-04-26T00:14:58.769Z,12.07
2019-04-26T00:17:35.830Z,12.07
2019-04-26T00:20:07.012Z,11.76
2019-04-26T00:22:37.340Z,11.77
2019-04-26T00:25:07.989Z,11.70
2019-04-26T00:27:38.222Z,11.53
2019-04-26T00:30:08.904Z,11.50
2019-04-26T00:32:39.678Z,11.48
2019-04-26T00:35:11.608Z,11.32
2019-04-26T00:37:43.095Z,11.31
2019-04-26T00:40:14.334Z,11.10
2019-04-26T00:42:46.338Z,11.11
2019-04-26T00:45:16.793Z,11.11
2019-04-26T00:47:48.212Z,11.05
2019-04-26T00:50:19.137Z,11.07
2019-04-26T00:52:50.501Z,10.99
2019-04-26T00:55:22.160Z,10.93
2019-04-26T00:57:53.355Z,10.74
2019-04-26T01:00:24.644Z,10.59
2019-04-26T01:02:56.641Z,10.84
2019-04-26T01:05:28.059Z,10.67
2019-04-26T01:07:58.421Z,10.59
2019-04-26T01:10:29.034Z,10.57
2019-04-26T01:12:59.396Z,10.51
2019-04-26T01:15:30.016Z,10.36
2019-04-26T01:18:00.670Z,10.50
2019-04-26T01:20:34.032Z,10.42
2019-04-26T01:23:07.863Z,10.45
2019-04-26T01:26:06.849Z,10.32
2019-04-26T01:28:51.189Z,10.38
2019-04-26T01:31:21.893Z,10.52
2019-04-26T01:33:56.210Z,10.43
2019-04-26T01:36:28.494Z,10.49
2019-04-26T01:39:06.200Z,10.50
2019-04-26T01:41:46.128Z,10.58
2019-04-26T01:44:24.650Z,10.51
2019-04-26T01:46:55.538Z,10.47
2019-04-26T01:49:26.633Z,10.39
2019-04-26T01:52:08.705Z,10.51
2019-04-26T01:54:43.737Z,10.48
2019-04-26T01:57:16.846Z,10.42
2019-04-26T01:59:54.199Z,10.31
2019-04-26T02:02:52.343Z,10.31
2019-04-26T02:05:25.810Z,10.23
2019-04-26T02:07:57.297Z,10.31
2019-04-26T02:10:30.726Z,10.33
2019-04-26T02:13:01.828Z,10.38
2019-04-26T02:15:33.875Z,10.47
2019-04-26T02:18:05.068Z,10.43
2019-04-26T02:21:04.756Z,10.53
2019-04-26T02:23:44.503Z,10.36
2019-04-26T02:26:34.890Z,10.33
2019-04-26T02:29:08.456Z,10.28
2019-04-26T02:31:40.651Z,10.35
2019-04-26T02:34:11.944Z,10.38
2019-04-26T02:36:56.918Z,10.36
2019-04-26T02:39:20.632Z,10.46
2019-04-26T02:41:55.672Z,10.49
2019-04-26T02:44:32.994Z,10.56
2019-04-26T02:47:43.192Z,10.55
2019-04-26T02:50:20.422Z,10.60
2019-04-26T02:53:05.297Z,10.58
2019-04-26T02:56:13.365Z,10.66
2019-04-26T02:59:31.707Z,10.65
2019-04-26T03:02:05.892Z,10.85
2019-04-26T03:04:39.689Z,10.77
2019-04-26T03:07:20.361Z,10.78
2019-04-26T03:09:52.170Z,10.83
2019-04-26T03:12:27.762Z,10.88
2019-04-26T03:15:13.693Z,10.89
2019-04-26T03:18:02.350Z,10.89
2019-04-26T03:20:40.103Z,10.81
2019-04-26T03:23:58.260Z,10.82
2019-04-26T03:26:49.537Z,10.81
2019-04-26T03:30:19.775Z,10.79
2019-04-26T03:33:12.885Z,10.82
2019-04-26T03:36:17.520Z,10.74
2019-04-26T03:39:44.484Z,10.75
2019-04-26T03:43:25.957Z,10.72
2019-04-26T03:46:30.384Z,10.55
2019-04-26T03:49:40.056Z,10.49
2019-04-26T03:53:11.117Z,10.47
2019-04-26T03:56:30.654Z,10.50
2019-04-26T03:59:56.015Z,10.53
2019-04-26T04:02:53.258Z,10.59
2019-04-26T04:05:37.538Z,10.67
2019-04-26T04:08:12.925Z,10.62
2019-04-26T04:10:52.989Z,10.63
2019-04-26T04:13:59.167Z,10.65
2019-04-26T04:17:51.590Z,10.56
2019-04-26T04:21:17.755Z,10.62
2019-04-26T04:24:06.307Z,10.66
2019-04-26T04:27:03.264Z,10.69
2019-04-26T04:30:09.697Z,10.75
2019-04-26T04:33:31.756Z,10.83
2019-04-26T04:36:13.563Z,10.89
2019-04-26T04:39:13.377Z,10.81
2019-04-26T04:42:50.134Z,10.82
2019-04-26T04:46:25.077Z,10.90
2019-04-26T04:49:32.667Z,10.86
2019-04-26T04:52:18.348Z,10.86
2019-04-26T04:55:07.044Z,10.86
2019-04-26T04:58:05.237Z,10.88
2019-04-26T05:01:32.034Z,10.80
2019-04-26T05:04:23.656Z,10.81
2019-04-26T05:07:45.037Z,10.81
2019-04-26T05:10:32.561Z,10.72
2019-04-26T05:13:46.366Z,10.70
2019-04-26T05:17:10.863Z,10.67
2019-04-26T05:20:26.999Z,10.58
2019-04-26T05:23:55.526Z,10.50
2019-04-26T05:27:44.240Z,10.48
2019-04-26T05:31:09.764Z,10.52
2019-04-26T05:34:38.414Z,10.53
2019-04-26T05:37:37.203Z,10.48
2019-04-26T05:40:49.723Z,10.46
2019-04-26T05:44:16.580Z,10.47
2019-04-26T05:47:26.925Z,10.41
2019-04-26T05:51:15.151Z,10.43
2019-04-26T05:54:45.744Z,10.50
2019-04-26T05:58:19.968Z,10.52
2019-04-26T06:01:41.202Z,10.59
2019-04-26T06:04:55.195Z,10.57
2019-04-26T06:08:14.835Z,10.61
2019-04-26T06:10:57.817Z,10.64
2019-04-26T06:14:48.400Z,10.64
2019-04-26T06:18:18.447Z,10.66
2019-04-26T06:21:14.559Z,10.64
2019-04-26T06:24:29.347Z,10.56
2019-04-26T06:27:54.469Z,10.47
2019-04-26T06:30:45.570Z,10.40
2019-04-26T06:33:31.778Z,10.36
2019-04-26T06:36:11.538Z,10.40
2019-04-26T06:39:19.061Z,10.35
2019-04-26T06:42:46.482Z,10.42
2019-04-26T06:46:18.086Z,10.22
2019-04-26T06:49:35.193Z,10.16
2019-04-26T06:52:11.774Z,10.11
2019-04-26T06:55:35.668Z,10.17
2019-04-26T06:59:17.316Z,10.11
2019-04-26T07:02:00.902Z,10.05
2019-04-26T07:05:00.725Z,9.89
2019-04-26T07:07:56.102Z,9.82
2019-04-26T07:11:07.183Z,9.65
2019-04-26T07:14:10.133Z,9.57
2019-04-26T07:17:08.086Z,9.58
2019-04-26T07:20:38.987Z,9.51
2019-04-26T07:23:59.654Z,9.49
2019-04-26T07:27:43.967Z,9.54
2019-04-26T07:30:55.844Z,9.57
2019-04-26T07:34:16.919Z,9.68
2019-04-26T07:37:39.383Z,9.59
2019-04-26T07:41:20.931Z,9.60
2019-04-26T07:44:34.319Z,9.61
2019-04-26T07:47:40.198Z,9.77
2019-04-26T07:50:59.419Z,9.77
2019-04-26T07:54:13.179Z,9.81
2019-04-26T07:57:40.097Z,9.81
2019-04-26T08:00:20.723Z,9.84
2019-04-26T08:03:13.039Z,9.89
2019-04-26T08:06:25.564Z,9.92
2019-04-26T08:09:26.258Z,10.04
2019-04-26T08:11:56.599Z,10.11
2019-04-26T08:15:06.167Z,10.05
2019-04-26T08:18:09.463Z,10.01
2019-04-26T08:20:52.558Z,10.09
2019-04-26T08:23:41.407Z,10.19
2019-04-26T08:26:15.513Z,10.22
2019-04-26T08:28:48.775Z,10.34
2019-04-26T08:31:24.761Z,10.32
2019-04-26T08:34:02.499Z,10.46
2019-04-26T08:36:39.373Z,10.43
2019-04-26T08:39:19.184Z,10.44
2019-04-26T08:41:53.021Z,10.46
2019-04-26T08:44:51.111Z,10.42
2019-04-26T08:47:29.613Z,10.48
2019-04-26T08:50:09.678Z,10.51
2019-04-26T08:52:40.766Z,10.58
2019-04-26T08:55:13.489Z,10.47
2019-04-26T08:57:46.547Z,10.57
2019-04-26T09:00:46.771Z,10.74
2019-04-26T09:03:32.482Z,10.69
2019-04-26T09:06:38.921Z,10.65
2019-04-26T09:09:19.799Z,10.65
2019-04-26T09:11:59.474Z,10.69
2019-04-26T09:14:29.186Z,10.72
2019-04-26T09:16:59.709Z,10.57
2019-04-26T09:19:31.904Z,10.65
2019-04-26T09:22:14.419Z,10.70
2019-04-26T09:25:06.673Z,10.77
2019-04-26T09:27:44.133Z,10.83
2019-04-26T09:30:34.674Z,10.82
2019-04-26T09:33:20.861Z,10.92
2019-04-26T09:35:50.879Z,10.97
2019-04-26T09:38:21.123Z,11.05
2019-04-26T09:40:52.515Z,11.06
2019-04-26T09:43:40.158Z,11.02
2019-04-26T09:46:35.164Z,10.99
2019-04-26T09:49:10.926Z,10.98
2019-04-26T09:51:41.511Z,11.10
2019-04-26T09:54:11.918Z,11.19
2019-04-26T09:56:42.287Z,11.15
2019-04-26T09:59:12.690Z,11.11
2019-04-26T10:01:42.989Z,11.14
2019-04-26T10:04:13.522Z,11.33
2019-04-26T10:06:44.242Z,11.32
2019-04-26T10:09:21.152Z,11.53
2019-04-26T10:11:56.639Z,11.42
2019-04-26T10:14:34.030Z,11.38
2019-04-26T10:17:26.817Z,11.40
2019-04-26T10:19:58.589Z,11.29
2019-04-26T10:22:32.367Z,11.47
2019-04-26T10:25:06.823Z,11.36
2019-04-26T10:27:36.398Z,11.50
2019-04-26T10:30:09.490Z,11.30
2019-04-26T10:32:38.855Z,11.23
2019-04-26T10:35:09.551Z,11.46
2019-04-26T10:37:43.670Z,11.20
2019-04-26T10:40:12.927Z,11.02
2019-04-26T10:42:43.574Z,11.16
2019-04-26T10:45:14.823Z,11.07
2019-04-26T10:47:46.430Z,10.98
2019-04-26T10:50:16.992Z,11.06
2019-04-26T10:52:54.314Z,10.92
2019-04-26T10:55:46.501Z,10.97
2019-04-26T10:58:36.313Z,11.05
2019-04-26T11:01:12.595Z,11.20
2019-04-26T11:03:43.003Z,11.32
2019-04-26T11:06:13.462Z,11.26
2019-04-26T11:08:43.856Z,11.27
2019-04-26T11:11:14.296Z,11.21
2019-04-26T11:13:44.677Z,11.32
2019-04-26T11:16:15.193Z,11.45
2019-04-26T11:18:45.559Z,11.42
2019-04-26T11:21:16.274Z,11.55
2019-04-26T11:23:49.938Z,11.71
2019-04-26T11:26:19.907Z,11.89
2019-04-26T11:28:51.281Z,11.68
2019-04-26T11:31:23.342Z,11.59
2019-04-26T11:34:04.687Z,11.79
2019-04-26T11:36:26.770Z,11.76
2019-04-26T11:38:57.138Z,11.77
2019-04-26T11:41:27.786Z,11.76
2019-04-26T11:43:58.438Z,11.69
2019-04-26T11:46:30.294Z,11.75
2019-04-26T11:49:03.205Z,11.81
2019-04-26T11:51:33.358Z,11.74
2019-04-26T11:54:03.651Z,11.97
2019-04-26T11:56:37.187Z,12.16
2019-04-26T11:59:06.702Z,12.07
2019-04-26T12:01:40.569Z,12.00
2019-04-26T12:04:27.426Z,11.97
2019-04-26T12:07:16.284Z,12.03
2019-04-26T12:09:47.905Z,11.99
2019-04-26T12:12:18.196Z,11.83
2019-04-26T12:14:48.586Z,11.89
2019-04-26T12:17:19.064Z,11.96
2019-04-26T12:19:52.192Z,11.86
2019-04-26T12:22:21.528Z,11.87
2019-04-26T12:24:51.932Z,11.88
2019-04-26T12:27:22.296Z,11.93
2019-04-26T12:29:52.739Z,12.09
2019-04-26T12:32:23.468Z,12.15
2019-04-26T12:34:54.392Z,12.13
2019-04-26T12:37:24.729Z,12.06
2019-04-26T12:39:55.670Z,11.91
2019-04-26T12:42:26.001Z,11.89
2019-04-26T12:45:16.813Z,11.90
2019-04-26T12:47:57.696Z,11.86
2019-04-26T12:50:29.397Z,11.92
2019-04-26T12:53:00.556Z,11.96
2019-04-26T12:55:30.914Z,11.95
2019-04-26T12:58:01.204Z,11.89
2019-04-26T13:00:33.116Z,11.97
2019-04-26T13:03:05.269Z,11.88
2019-04-26T13:05:35.458Z,11.69
2019-04-26T13:08:06.938Z,11.42
2019-04-26T13:11:14.941Z,11.20
2019-04-26T13:13:46.780Z,11.17
2019-04-26T13:16:36.453Z,11.23
2019-04-26T13:19:06.878Z,11.33
2019-04-26T13:21:38.900Z,11.39
2019-04-26T13:24:09.327Z,11.35
2019-04-26T13:26:39.967Z,11.48
2019-04-26T13:29:10.675Z,11.32
2019-04-26T13:31:41.328Z,11.34
2019-04-26T13:34:11.704Z,11.36
2019-04-26T13:36:42.321Z,11.28
2019-04-26T13:39:17.318Z,11.41
2019-04-26T13:41:45.738Z,11.31
2019-04-26T13:44:18.653Z,11.27
2019-04-26T13:47:09.506Z,11.23
2019-04-26T13:49:56.679Z,11.13
2019-04-26T13:52:27.256Z,11.13
2019-04-26T13:54:57.717Z,11.25
2019-04-26T13:57:27.974Z,11.34
2019-04-26T13:59:58.265Z,11.65
2019-04-26T14:02:28.500Z,11.76
2019-04-26T14:04:59.237Z,11.88
2019-04-26T14:07:30.115Z,12.02
2019-04-26T14:10:00.867Z,12.13
2019-04-26T14:12:31.183Z,12.14
2019-04-26T14:15:04.571Z,12.11
2019-04-26T14:17:34.703Z,12.00
2019-04-26T14:20:05.192Z,12.05
2019-04-26T14:22:42.160Z,11.93
2019-04-26T14:25:15.960Z,11.92
2019-04-26T14:27:51.684Z,11.92
2019-04-26T14:30:22.294Z,12.05
2019-04-26T14:32:56.842Z,12.21
2019-04-26T14:35:25.016Z,12.15
2019-04-26T14:37:55.736Z,12.18
2019-04-26T14:40:26.318Z,12.25
2019-04-26T14:43:06.483Z,12.20
2019-04-26T14:45:28.564Z,12.36
2019-04-26T14:48:00.121Z,12.51
2019-04-26T14:50:32.117Z,12.47
2019-04-26T14:53:03.646Z,12.42
2019-04-26T14:55:34.249Z,12.52
2019-04-26T14:58:04.530Z,12.56
2019-04-26T15:00:37.152Z,12.58
2019-04-26T15:03:17.273Z,12.57
2019-04-26T15:06:06.684Z,12.52
2019-04-26T15:08:40.545Z,12.44
2019-04-26T15:11:09.139Z,12.33
2019-04-26T15:13:40.515Z,12.32
2019-04-26T15:16:12.362Z,12.30
2019-04-26T15:18:43.437Z,12.29
2019-04-26T15:21:13.888Z,12.31
2019-04-26T15:23:44.749Z,12.23
2019-04-26T15:26:18.416Z,12.18
2019-04-26T15:28:50.453Z,12.14
2019-04-26T15:31:21.738Z,12.06
2019-04-26T15:33:52.846Z,11.98
2019-04-26T15:36:23.325Z,11.92
2019-04-26T15:38:54.311Z,11.89
2019-04-26T15:41:38.346Z,11.89
2019-04-26T15:44:13.710Z,11.93
2019-04-26T15:47:03.179Z,11.97
2019-04-26T15:49:48.716Z,11.96
2019-04-26T15:52:19.081Z,11.98
2019-04-26T15:54:52.950Z,11.97
2019-04-26T15:57:24.481Z,12.00
2019-04-26T15:59:54.338Z,12.00
2019-04-26T16:02:26.463Z,12.03
2019-04-26T16:04:56.843Z,12.03
2019-04-26T16:07:29.156Z,12.06
2019-04-26T16:09:59.881Z,12.07
2019-04-26T16:12:30.233Z,12.08
2019-04-26T16:15:02.379Z,12.08
2019-04-26T16:17:36.164Z,12.12
2019-04-26T16:20:05.732Z,12.12
2019-04-26T16:22:36.403Z,12.18
2019-04-26T16:25:06.852Z,12.24
2019-04-26T16:27:37.451Z,12.24
2019-04-26T16:30:28.493Z,12.27
2019-04-26T16:33:10.097Z,12.26
2019-04-26T16:35:42.101Z,12.26
2019-04-26T16:38:29.828Z,12.32
2019-04-26T16:41:00.119Z,12.33
2019-04-26T16:43:39.646Z,12.30
2019-04-26T16:46:02.901Z,12.36
2019-04-26T16:48:33.380Z,12.37
2019-04-26T16:53:52.235Z,12.33
2019-04-26T16:56:08.676Z,12.33
2019-04-26T16:58:45.003Z,12.31
2019-04-26T17:01:12.394Z,12.22
2019-04-26T17:03:45.105Z,12.16
2019-04-26T17:06:15.145Z,12.14
2019-04-26T17:08:49.923Z,12.12
2019-04-26T17:09:50.342Z,12.36
2019-04-26T17:11:17.943Z,12.13
2019-04-26T17:13:53.447Z,12.11
2019-04-26T17:16:21.969Z,12.04
2019-04-26T17:18:55.650Z,12.06
2019-04-26T17:21:26.138Z,12.05
2019-04-26T17:24:15.413Z,12.02
2019-04-26T17:26:51.854Z,12.00
2019-04-26T17:29:22.264Z,11.96
2019-04-26T17:31:53.210Z,11.95
2019-04-26T17:34:29.349Z,11.99
2019-04-26T17:36:56.419Z,12.00
2019-04-26T17:39:26.765Z,12.01
2019-04-26T17:41:57.808Z,11.97
2019-04-26T17:44:28.326Z,11.94
2019-04-26T17:47:00.210Z,11.89
2019-04-26T17:49:34.308Z,11.87
2019-04-26T17:52:03.043Z,11.85
2019-04-26T17:54:46.301Z,11.84
2019-04-26T17:57:08.872Z,11.83
2019-04-26T17:59:45.296Z,11.75
2019-04-26T18:02:24.247Z,11.75
2019-04-26T18:04:43.294Z,11.71
2019-04-26T18:07:37.553Z,11.67
2019-04-26T18:09:46.941Z,11.64
2019-04-26T18:12:17.260Z,11.55
2019-04-26T18:14:48.449Z,11.51
2019-04-26T18:17:38.909Z,11.48
2019-04-26T18:20:33.533Z,11.45
2019-04-26T18:23:10.135Z,11.44
2019-04-26T18:25:41.245Z,11.40
2019-04-26T18:28:13.266Z,11.40
2019-04-26T18:30:46.656Z,11.38
2019-04-26T18:33:17.588Z,11.31
2019-04-26T18:35:49.330Z,11.32
2019-04-26T18:38:20.659Z,11.32
2019-04-26T18:41:05.945Z,11.29
2019-04-26T18:43:24.568Z,11.22
2019-04-26T18:46:02.792Z,11.20
2019-04-26T18:48:35.215Z,11.18
2019-04-26T18:51:07.191Z,11.15
2019-04-26T18:54:00.396Z,11.09
2019-04-26T18:56:33.738Z,11.07
2019-04-26T18:59:07.166Z,11.07
2019-04-26T19:01:41.014Z,11.05
2019-04-26T19:04:12.611Z,11.05
2019-04-26T19:06:42.266Z,10.99
2019-04-26T19:09:12.598Z,10.97
2019-04-26T19:11:48.583Z,10.94
2019-04-26T19:14:29.675Z,10.94
2019-04-26T19:17:12.012Z,10.84
2019-04-26T19:20:07.391Z,10.84
2019-04-26T19:22:38.026Z,10.86
2019-04-26T19:25:19.025Z,10.80
2019-04-26T19:27:49.653Z,10.81
2019-04-26T19:30:15.689Z,10.78
2019-04-26T19:32:46.789Z,10.75
2019-04-26T19:35:17.281Z,10.69
2019-04-26T19:37:48.159Z,10.64
2019-04-26T19:40:18.545Z,10.59
2019-04-26T19:42:53.676Z,10.54
2019-04-26T19:45:32.700Z,10.50
2019-04-26T19:48:12.452Z,10.41
2019-04-26T19:50:50.217Z,10.37
2019-04-26T19:53:29.151Z,10.36
2019-04-26T19:56:12.907Z,10.33
2019-04-26T19:58:50.644Z,10.31
2019-04-26T20:01:20.962Z,10.35
2019-04-26T20:03:55.058Z,10.31
2019-04-26T20:06:23.507Z,10.29
2019-04-26T20:08:54.147Z,10.26
2019-04-26T20:11:24.834Z,10.26
2019-04-26T20:13:55.436Z,10.26
2019-04-26T20:16:26.094Z,10.23
2019-04-26T20:18:56.640Z,10.23
2019-04-26T20:21:26.919Z,10.21
2019-04-26T20:23:57.277Z,10.18
2019-04-26T20:26:27.905Z,10.19
2019-04-26T20:28:58.548Z,10.21
2019-04-26T20:31:37.561Z,10.19
2019-04-26T20:34:10.931Z,10.17
2019-04-26T20:36:47.135Z,10.24
2019-04-26T20:39:16.641Z,10.25
2019-04-26T20:41:45.224Z,10.24
2019-04-26T20:44:16.071Z,10.21
2019-04-26T20:46:47.214Z,10.16
2019-04-26T20:49:19.384Z,10.18
2019-04-26T20:51:51.760Z,10.21
2019-04-26T20:54:22.507Z,10.14
2019-04-26T20:56:55.548Z,10.17
2019-04-26T20:59:25.349Z,10.16
2019-04-26T21:02:05.349Z,10.13
2019-04-26T21:04:36.915Z,10.09
2019-04-26T21:07:00.154Z,10.08
2019-04-26T21:09:32.233Z,10.06
2019-04-26T21:12:02.805Z,10.03
2019-04-26T21:14:33.080Z,10.01
2019-04-26T21:17:03.765Z,10.03
2019-04-26T21:19:34.193Z,10.04
2019-04-26T21:22:05.159Z,10.04
2019-04-26T21:24:38.287Z,9.99
2019-04-26T21:27:25.857Z,9.97
2019-04-26T21:30:06.980Z,9.96
2019-04-26T21:32:59.157Z,9.97
2019-04-26T21:35:34.183Z,9.95
2019-04-26T21:38:08.887Z,9.93
2019-04-26T21:40:55.391Z,9.93
2019-04-26T21:43:29.450Z,9.91
2019-04-26T21:46:07.604Z,9.88
2019-04-26T21:48:30.072Z,9.85
2019-04-26T21:51:00.311Z,9.86
2019-04-26T21:53:30.751Z,9.87
2019-04-26T21:56:02.941Z,9.82
2019-04-26T21:58:33.748Z,9.79
2019-04-26T22:01:11.078Z,9.78
2019-04-26T22:03:47.485Z,9.78
2019-04-26T22:06:14.313Z,9.77
2019-04-26T22:08:50.631Z,9.75
2019-04-26T22:11:23.164Z,9.72
2019-04-26T22:14:07.174Z,9.69
2019-04-26T22:16:43.266Z,9.65
2019-04-26T22:19:27.939Z,9.59
2019-04-26T22:22:10.835Z,9.56
2019-04-26T22:24:41.294Z,9.47
2019-04-26T22:27:13.243Z,9.48
2019-04-26T22:29:47.614Z,9.48
2019-04-26T22:32:19.010Z,9.43
2019-04-26T22:34:47.694Z,9.40
2019-04-26T22:37:29.263Z,9.37
2019-04-26T22:39:50.177Z,9.34
2019-04-26T22:42:21.455Z,9.32
2019-04-26T22:44:57.761Z,9.28
2019-04-26T22:47:44.664Z,9.26
2019-04-26T22:50:20.850Z,9.26
2019-04-26T22:52:51.537Z,9.07
2019-04-26T22:55:24.613Z,9.22
2019-04-26T22:57:53.018Z,9.23
2019-04-26T23:00:29.484Z,9.23
2019-04-26T23:03:05.505Z,9.20
2019-04-26T23:05:37.313Z,9.19
2019-04-26T23:08:05.340Z,9.18
2019-04-26T23:10:46.687Z,9.21
2019-04-26T23:13:24.655Z,9.21
2019-04-26T23:16:15.442Z,9.24
2019-04-26T23:19:10.668Z,9.25
2019-04-26T23:21:52.727Z,9.27
2019-04-26T23:24:18.906Z,9.23
2019-04-26T23:26:48.780Z,9.23
2019-04-26T23:29:19.240Z,9.26
2019-04-26T23:31:49.611Z,9.26
2019-04-26T23:34:19.873Z,9.21
2019-04-26T23:36:50.522Z,9.31
2019-04-26T23:39:22.825Z,9.29
2019-04-26T23:41:53.991Z,9.34
2019-04-26T23:44:24.518Z,9.35
2019-04-26T23:47:01.032Z,9.33
2019-04-26T23:49:26.719Z,9.39
2019-04-26T23:51:57.092Z,9.40
2019-04-26T23:54:28.082Z,9.34
2019-04-26T23:56:59.418Z,9.39
2019-04-26T23:59:29.661Z,9.35
